createdAt,value
2018-04-19T00:00:03.130Z,0.70
2018-04-19T00:02:31.627Z,0.57
2018-04-19T00:04:59.239Z,0.57
2018-04-19T00:07:26.822Z,0.57
2018-04-19T00:09:54.408Z,0.70
2018-04-19T00:12:21.992Z,0.60
2018-04-19T00:14:49.645Z,0.70
2018-04-19T00:17:17.224Z,0.43
2018-04-19T00:19:44.809Z,0.60
2018-04-19T00:22:12.379Z,0.60
2018-04-19T00:24:39.969Z,0.57
2018-04-19T00:27:08.309Z,0.80
2018-04-19T00:29:35.904Z,0.80
2018-04-19T00:32:04.254Z,0.50
2018-04-19T00:34:31.905Z,0.70
2018-04-19T00:36:59.473Z,0.60
2018-04-19T00:39:27.107Z,0.50
2018-04-19T00:41:54.670Z,0.67
2018-04-19T00:44:22.262Z,0.57
2018-04-19T00:46:50.602Z,0.40
2018-04-19T00:49:18.192Z,0.53
2018-04-19T00:51:45.802Z,0.70
2018-04-19T00:54:13.361Z,0.63
2018-04-19T00:56:40.930Z,0.60
2018-04-19T00:59:08.735Z,0.70
2018-04-19T01:01:37.068Z,0.47
2018-04-19T01:04:04.667Z,0.53
2018-04-19T01:06:33.003Z,0.67
2018-04-19T01:09:00.605Z,0.60
2018-04-19T01:11:28.231Z,0.50
2018-04-19T01:13:55.850Z,0.70
2018-04-19T01:16:23.425Z,0.70
2018-04-19T01:18:51.059Z,0.50
2018-04-19T01:21:18.705Z,0.50
2018-04-19T01:23:47.139Z,0.50
2018-04-19T01:26:14.707Z,0.60
2018-04-19T01:28:42.274Z,0.60
2018-04-19T01:31:09.922Z,0.67
2018-04-19T01:33:37.588Z,0.80
2018-04-19T01:36:17.069Z,0.60
2018-04-19T01:38:44.651Z,0.83
2018-04-19T01:41:12.215Z,0.50
2018-04-19T01:43:39.938Z,0.60
2018-04-19T01:46:08.273Z,0.60
2018-04-19T01:48:35.895Z,0.50
2018-04-19T01:51:03.555Z,0.50
2018-04-19T01:53:31.202Z,0.50
2018-04-19T01:55:58.785Z,0.50
2018-04-19T01:58:26.350Z,0.50
2018-04-19T02:00:53.948Z,0.50
2018-04-19T02:03:21.526Z,0.50
2018-04-19T02:05:49.899Z,0.63
2018-04-19T02:08:18.221Z,0.60
2018-04-19T02:10:45.781Z,0.67
2018-04-19T02:13:13.430Z,0.57
2018-04-19T02:15:41.030Z,0.50
2018-04-19T02:18:08.777Z,0.70
2018-04-19T02:20:36.360Z,0.60
2018-04-19T02:23:03.924Z,0.50
2018-04-19T02:25:31.547Z,0.50
2018-04-19T02:27:59.114Z,0.47
2018-04-19T02:30:26.675Z,0.63
2018-04-19T02:32:54.286Z,0.50
2018-04-19T02:35:21.882Z,0.60
2018-04-19T02:37:49.515Z,0.47
2018-04-19T02:40:17.100Z,0.70
2018-04-19T02:42:44.687Z,0.50
2018-04-19T02:45:12.247Z,0.40
2018-04-19T02:47:40.680Z,0.40
2018-04-19T02:50:08.242Z,0.50
2018-04-19T02:52:35.810Z,0.50
2018-04-19T02:55:03.562Z,0.60
2018-04-19T02:57:31.123Z,0.70
2018-04-19T02:59:58.693Z,0.50
2018-04-19T03:02:26.271Z,0.40
2018-04-19T03:04:53.899Z,0.77
2018-04-19T03:07:21.506Z,0.50
2018-04-19T03:09:49.855Z,0.50
2018-04-19T03:12:17.442Z,0.40
2018-04-19T03:14:45.774Z,0.60
2018-04-19T03:17:13.348Z,0.40
2018-04-19T03:19:40.913Z,0.50
2018-04-19T03:22:08.486Z,0.60
2018-04-19T03:24:36.837Z,0.47
2018-04-19T03:27:05.181Z,0.57
2018-04-19T03:29:32.761Z,0.50
2018-04-19T03:32:00.413Z,0.43
2018-04-19T03:34:27.985Z,0.50
2018-04-19T03:36:55.551Z,0.60
2018-04-19T03:39:23.126Z,0.50
2018-04-19T03:41:51.576Z,0.50
2018-04-19T03:44:19.158Z,0.63
2018-04-19T03:46:47.501Z,0.47
2018-04-19T03:49:15.061Z,0.63
2018-04-19T03:51:42.713Z,0.60
2018-04-19T03:54:10.286Z,0.50
2018-04-19T03:56:38.329Z,0.70
2018-04-19T03:59:05.921Z,0.53
2018-04-19T04:01:33.497Z,0.50
2018-04-19T04:04:01.096Z,0.60
2018-04-19T04:06:28.674Z,0.40
2018-04-19T04:08:56.263Z,0.50
2018-04-19T04:11:23.848Z,0.67
2018-04-19T04:13:52.199Z,0.47
2018-04-19T04:16:31.634Z,0.50
2018-04-19T04:19:11.045Z,0.50
2018-04-19T04:21:50.580Z,0.30
2018-04-19T04:24:18.164Z,0.50
2018-04-19T04:26:45.758Z,0.40
2018-04-19T04:29:13.324Z,0.60
2018-04-19T04:31:40.898Z,0.50
2018-04-19T04:34:08.666Z,0.57
2018-04-19T04:36:36.225Z,0.50
2018-04-19T04:39:03.813Z,0.50
2018-04-19T04:41:31.377Z,0.50
2018-04-19T04:43:58.960Z,0.40
2018-04-19T04:46:27.296Z,0.50
2018-04-19T04:48:54.939Z,0.50
2018-04-19T04:51:22.497Z,0.50
2018-04-19T04:53:50.061Z,0.60
2018-04-19T04:56:17.623Z,0.63
2018-04-19T04:58:45.202Z,0.70
2018-04-19T05:01:13.539Z,0.70
2018-04-19T05:03:42.131Z,0.60
2018-04-19T05:06:09.722Z,0.80
2018-04-19T05:08:37.408Z,0.33
2018-04-19T05:11:05.746Z,0.60
2018-04-19T05:13:33.386Z,0.40
2018-04-19T05:16:01.027Z,0.80
2018-04-19T05:18:28.593Z,0.50
2018-04-19T05:20:56.160Z,0.43
2018-04-19T05:23:23.722Z,0.40
2018-04-19T05:25:51.398Z,0.50
2018-04-19T05:28:19.035Z,0.50
2018-04-19T05:30:46.613Z,0.50
2018-04-19T05:33:14.191Z,0.70
2018-04-19T05:35:41.753Z,0.40
2018-04-19T05:38:09.374Z,0.47
2018-04-19T05:40:36.961Z,0.40
2018-04-19T05:43:04.521Z,0.40
2018-04-19T05:45:33.691Z,0.60
2018-04-19T05:48:01.261Z,0.40
2018-04-19T05:50:28.835Z,0.40
2018-04-19T05:52:57.169Z,0.40
2018-04-19T05:55:24.726Z,0.50
2018-04-19T05:57:52.285Z,0.40
2018-04-19T06:00:19.861Z,0.60
2018-04-19T06:02:47.544Z,0.30
2018-04-19T06:05:15.110Z,0.60
2018-04-19T06:07:43.456Z,0.40
2018-04-19T06:10:11.107Z,0.40
2018-04-19T06:12:38.935Z,0.50
2018-04-19T06:15:06.510Z,0.60
2018-04-19T06:17:34.110Z,0.70
2018-04-19T06:20:02.469Z,0.53
2018-04-19T06:22:30.074Z,0.50
2018-04-19T06:24:58.445Z,0.60
2018-04-19T06:27:26.002Z,0.63
2018-04-19T06:29:54.345Z,0.40
2018-04-19T06:32:21.921Z,0.50
2018-04-19T06:34:49.504Z,0.50
2018-04-19T06:37:17.100Z,0.43
2018-04-19T06:39:44.666Z,0.53
2018-04-19T06:42:12.226Z,0.50
2018-04-19T06:44:39.790Z,0.50
2018-04-19T06:47:07.363Z,0.60
2018-04-19T06:49:34.929Z,0.40
2018-04-19T06:52:02.493Z,0.60
2018-04-19T06:54:30.834Z,0.50
2018-04-19T06:56:58.502Z,0.47
2018-04-19T06:59:26.067Z,0.40
2018-04-19T07:01:53.644Z,0.40
2018-04-19T07:04:22.006Z,0.43
2018-04-19T07:06:49.578Z,0.50
2018-04-19T07:09:17.953Z,0.50
2018-04-19T07:11:45.530Z,0.47
2018-04-19T07:14:14.160Z,0.77
2018-04-19T07:19:38.242Z,0.40
2018-04-19T07:22:06.002Z,0.60
2018-04-19T07:24:34.531Z,0.60
2018-04-19T07:27:02.172Z,0.50
2018-04-19T07:29:29.757Z,0.60
2018-04-19T07:31:58.201Z,0.40
2018-04-19T07:34:26.472Z,0.53
2018-04-19T07:36:55.096Z,0.60
2018-04-19T07:39:22.787Z,0.50
2018-04-19T07:41:50.507Z,0.50
2018-04-19T07:44:18.530Z,0.47
2018-04-19T07:46:46.090Z,0.50
2018-04-19T07:49:13.640Z,0.40
2018-04-19T07:51:41.273Z,0.47
2018-04-19T07:54:08.873Z,0.43
2018-04-19T07:56:36.695Z,0.40
2018-04-19T07:59:05.174Z,0.40
2018-04-19T08:01:32.941Z,0.40
2018-04-19T08:04:00.561Z,0.50
2018-04-19T08:06:28.123Z,0.60
2018-04-19T08:08:56.481Z,0.50
2018-04-19T08:11:24.138Z,0.50
2018-04-19T08:13:51.666Z,0.47
2018-04-19T08:16:19.222Z,0.63
2018-04-19T08:18:46.939Z,0.63
2018-04-19T08:21:14.636Z,0.90
2018-04-19T08:23:42.841Z,0.50
2018-04-19T08:26:10.411Z,0.50
2018-04-19T08:28:39.104Z,0.50
2018-04-19T08:31:06.672Z,0.70
2018-04-19T08:33:34.298Z,0.50
2018-04-19T08:36:02.799Z,0.50
2018-04-19T08:38:30.381Z,0.50
2018-04-19T08:40:58.708Z,0.50
2018-04-19T08:43:26.273Z,0.70
2018-04-19T08:45:53.825Z,0.53
2018-04-19T08:48:21.389Z,0.70
2018-04-19T08:50:49.059Z,0.70
2018-04-19T08:53:17.599Z,0.80
2018-04-19T08:55:45.619Z,0.60
2018-04-19T08:58:13.261Z,0.50
2018-04-19T09:00:40.899Z,0.43
2018-04-19T09:03:08.599Z,0.77
2018-04-19T09:05:36.285Z,0.50
2018-04-19T09:08:04.658Z,0.60
2018-04-19T09:10:32.281Z,0.70
2018-04-19T09:13:00.066Z,0.67
2018-04-19T09:15:27.786Z,0.60
2018-04-19T09:17:55.594Z,0.47
2018-04-19T09:20:23.919Z,0.60
2018-04-19T09:22:51.504Z,0.60
2018-04-19T09:25:19.332Z,0.60
2018-04-19T09:27:47.287Z,0.60
2018-04-19T09:30:14.861Z,0.80
2018-04-19T09:32:42.446Z,0.60
2018-04-19T09:35:10.095Z,0.77
2018-04-19T09:37:37.662Z,0.60
2018-04-19T09:40:05.260Z,0.70
2018-04-19T09:42:33.679Z,0.67
2018-04-19T09:45:01.306Z,0.80
2018-04-19T09:47:29.632Z,0.70
2018-04-19T09:49:57.239Z,0.70
2018-04-19T09:52:25.598Z,0.70
2018-04-19T09:54:53.180Z,0.87
2018-04-19T09:57:21.580Z,0.83
2018-04-19T09:59:49.135Z,0.50
2018-04-19T10:02:16.965Z,0.67
2018-04-19T10:04:46.227Z,0.63
2018-04-19T10:07:13.837Z,0.53
2018-04-19T10:09:42.178Z,0.70
2018-04-19T10:12:09.739Z,0.73
2018-04-19T10:14:37.967Z,0.70
2018-04-19T10:17:05.522Z,0.60
2018-04-19T10:19:33.149Z,0.70
2018-04-19T10:22:00.734Z,0.70
2018-04-19T10:24:28.715Z,0.70
2018-04-19T10:26:56.278Z,0.80
2018-04-19T10:29:23.930Z,0.70
2018-04-19T10:31:51.489Z,0.80
2018-04-19T10:34:19.104Z,0.83
2018-04-19T10:36:46.669Z,0.63
2018-04-19T10:39:14.275Z,0.60
2018-04-19T10:41:41.892Z,0.63
2018-04-19T10:44:10.234Z,0.47
2018-04-19T10:46:37.915Z,0.60
2018-04-19T10:49:05.488Z,0.60
2018-04-19T10:51:33.078Z,0.90
2018-04-19T10:54:00.638Z,0.80
2018-04-19T10:56:28.219Z,0.70
2018-04-19T10:58:55.826Z,0.60
2018-04-19T11:01:23.479Z,0.53
2018-04-19T11:03:51.101Z,0.90
2018-04-19T11:06:18.688Z,0.83
2018-04-19T11:08:47.006Z,0.77
2018-04-19T11:11:14.625Z,0.77
2018-04-19T11:13:42.338Z,0.80
2018-04-19T11:16:09.937Z,0.67
2018-04-19T11:18:37.581Z,0.70
2018-04-19T11:21:05.225Z,0.70
2018-04-19T11:23:32.793Z,0.63
2018-04-19T11:26:00.388Z,0.70
2018-04-19T11:28:28.704Z,0.83
2018-04-19T11:30:56.463Z,0.60
2018-04-19T11:33:24.853Z,0.67
2018-04-19T11:35:52.430Z,0.80
2018-04-19T11:38:19.998Z,0.67
2018-04-19T11:40:47.572Z,0.70
2018-04-19T11:43:15.166Z,0.80
2018-04-19T11:45:42.753Z,0.70
2018-04-19T11:48:10.343Z,0.80
2018-04-19T11:50:38.084Z,0.80
2018-04-19T11:53:05.825Z,0.87
2018-04-19T11:55:33.453Z,0.80
2018-04-19T11:58:01.039Z,0.80
2018-04-19T12:00:29.926Z,0.70
2018-04-19T12:02:59.205Z,0.50
2018-04-19T12:05:27.164Z,0.60
2018-04-19T12:07:54.773Z,0.70
2018-04-19T12:10:22.977Z,0.63
2018-04-19T12:12:50.592Z,0.60
2018-04-19T12:15:18.269Z,0.77
2018-04-19T12:17:45.939Z,0.70
2018-04-19T12:20:13.579Z,0.60
2018-04-19T12:22:41.215Z,0.70
2018-04-19T12:25:08.807Z,0.60
2018-04-19T12:27:36.524Z,0.73
2018-04-19T12:30:04.206Z,0.77
2018-04-19T12:32:32.741Z,0.80
2018-04-19T12:35:01.695Z,0.60
2018-04-19T12:37:29.382Z,0.93
2018-04-19T12:39:57.533Z,0.77
2018-04-19T12:42:25.170Z,0.93
2018-04-19T12:44:52.809Z,0.70
2018-04-19T12:47:20.385Z,0.80
2018-04-19T12:49:47.953Z,0.73
2018-04-19T12:52:16.237Z,1.00
2018-04-19T12:54:43.909Z,0.60
2018-04-19T12:57:12.322Z,0.67
2018-04-19T12:59:40.454Z,0.70
2018-04-19T13:02:08.057Z,0.97
2018-04-19T13:04:35.664Z,0.60
2018-04-19T13:07:03.252Z,0.90
2018-04-19T13:09:31.630Z,0.67
2018-04-19T13:12:00.415Z,0.80
2018-04-19T13:14:28.745Z,0.60
2018-04-19T13:16:56.416Z,0.77
2018-04-19T13:19:24.082Z,0.80
2018-04-19T13:21:51.661Z,0.63
2018-04-19T13:24:19.252Z,0.80
2018-04-19T13:26:47.041Z,0.67
2018-04-19T13:29:14.736Z,0.70
2018-04-19T13:31:42.394Z,0.70
2018-04-19T13:34:10.977Z,1.10
2018-04-19T13:36:39.397Z,0.70
2018-04-19T13:39:06.976Z,0.80
2018-04-19T13:41:34.641Z,0.80
2018-04-19T13:44:02.285Z,0.83
2018-04-19T13:46:29.947Z,0.90
2018-04-19T13:48:57.673Z,0.80
2018-04-19T13:51:25.275Z,0.70
2018-04-19T13:53:52.917Z,0.80
2018-04-19T13:56:21.058Z,0.40
2018-04-19T13:58:49.391Z,0.70
2018-04-19T14:01:16.993Z,1.10
2018-04-19T14:03:45.377Z,0.70
2018-04-19T14:06:13.781Z,0.80
2018-04-19T14:08:41.345Z,0.80
2018-04-19T14:11:08.989Z,1.00
2018-04-19T14:13:36.632Z,0.80
2018-04-19T14:16:05.195Z,0.93
2018-04-19T14:18:32.832Z,0.70
2018-04-19T14:21:00.478Z,0.80
2018-04-19T14:23:28.062Z,0.53
2018-04-19T14:25:55.694Z,1.00
2018-04-19T14:28:23.330Z,0.73
2018-04-19T14:30:50.987Z,0.80
2018-04-19T14:33:19.421Z,0.73
2018-04-19T14:35:47.021Z,0.80
2018-04-19T14:38:14.757Z,0.90
2018-04-19T14:40:42.345Z,1.00
2018-04-19T14:43:10.013Z,0.80
2018-04-19T14:45:37.925Z,0.70
2018-04-19T14:48:05.689Z,0.83
2018-04-19T14:50:33.511Z,0.70
2018-04-19T14:53:01.064Z,0.73
2018-04-19T14:55:28.742Z,0.90
2018-04-19T14:57:56.318Z,0.87
2018-04-19T15:00:24.007Z,0.60
2018-04-19T15:02:52.318Z,0.80
2018-04-19T15:05:19.980Z,0.80
2018-04-19T15:07:47.562Z,0.80
2018-04-19T15:10:15.178Z,1.10
2018-04-19T15:12:43.523Z,0.83
2018-04-19T15:15:11.157Z,0.90
2018-04-19T15:17:38.759Z,0.77
2018-04-19T15:20:07.118Z,0.87
2018-04-19T15:22:34.749Z,0.80
2018-04-19T15:25:03.063Z,0.90
2018-04-19T15:27:31.417Z,0.60
2018-04-19T15:29:59.031Z,0.60
2018-04-19T15:32:26.635Z,0.80
2018-04-19T15:34:54.254Z,0.80
2018-04-19T15:37:22.606Z,0.80
2018-04-19T15:39:50.908Z,1.20
2018-04-19T15:42:18.689Z,0.80
2018-04-19T15:44:46.377Z,0.80
2018-04-19T15:47:13.974Z,0.60
2018-04-19T15:49:41.532Z,0.70
2018-04-19T15:52:10.063Z,0.83
2018-04-19T15:54:37.695Z,0.90
2018-04-19T15:57:05.289Z,1.00
2018-04-19T15:59:33.048Z,0.73
2018-04-19T16:02:00.690Z,0.80
2018-04-19T16:04:28.257Z,0.97
2018-04-19T16:06:56.271Z,0.80
2018-04-19T16:09:24.692Z,0.70
2018-04-19T16:11:53.219Z,0.80
2018-04-19T16:14:20.799Z,0.83
2018-04-19T16:16:48.388Z,0.60
2018-04-19T16:19:15.963Z,0.90
2018-04-19T16:21:43.578Z,0.63
2018-04-19T16:24:11.307Z,0.80
2018-04-19T16:26:39.139Z,0.90
2018-04-19T16:29:06.794Z,0.80
2018-04-19T16:31:34.441Z,0.73
2018-04-19T16:34:02.030Z,0.87
2018-04-19T16:36:29.684Z,0.80
2018-04-19T16:38:57.429Z,0.90
2018-04-19T16:41:25.036Z,1.07
2018-04-19T16:43:53.418Z,1.03
2018-04-19T16:46:21.056Z,0.80
2018-04-19T16:48:48.668Z,0.90
2018-04-19T16:51:16.286Z,0.97
2018-04-19T16:53:43.887Z,0.80
2018-04-19T16:56:11.497Z,0.60
2018-04-19T16:58:39.812Z,0.73
2018-04-19T17:01:07.465Z,0.70
2018-04-19T17:03:35.044Z,0.77
2018-04-19T17:06:02.747Z,1.00
2018-04-19T17:08:30.379Z,0.70
2018-04-19T17:10:58.113Z,0.80
2018-04-19T17:13:25.708Z,0.73
2018-04-19T17:15:53.374Z,1.10
2018-04-19T17:18:20.959Z,0.90
2018-04-19T17:20:48.612Z,0.77
2018-04-19T17:23:16.189Z,0.80
2018-04-19T17:25:44.602Z,0.80
2018-04-19T17:28:12.295Z,0.90
2018-04-19T17:30:41.135Z,0.80
2018-04-19T17:33:08.708Z,1.10
2018-04-19T17:35:36.790Z,0.80
2018-04-19T17:38:04.484Z,0.87
2018-04-19T17:40:32.091Z,0.90
2018-04-19T17:42:59.698Z,0.83
2018-04-19T17:45:27.350Z,0.77
2018-04-19T17:47:54.995Z,0.97
2018-04-19T17:50:22.639Z,1.03
2018-04-19T17:52:51.666Z,0.73
2018-04-19T17:55:19.297Z,1.07
2018-04-19T17:57:46.906Z,0.90
2018-04-19T18:00:15.282Z,0.70
2018-04-19T18:02:43.626Z,0.80
2018-04-19T18:05:11.226Z,0.90
2018-04-19T18:07:39.723Z,0.90
2018-04-19T18:10:07.334Z,0.90
2018-04-19T18:12:35.708Z,1.00
2018-04-19T18:15:03.329Z,1.00
2018-04-19T18:17:30.937Z,0.97
2018-04-19T18:19:58.588Z,0.73
2018-04-19T18:22:26.248Z,0.97
2018-04-19T18:24:53.868Z,0.90
2018-04-19T18:27:21.488Z,1.00
2018-04-19T18:29:49.094Z,0.90
2018-04-19T18:32:16.817Z,0.80
2018-04-19T18:34:45.203Z,0.93
2018-04-19T18:37:12.986Z,0.80
2018-04-19T18:39:40.571Z,0.90
2018-04-19T18:42:08.173Z,0.70
2018-04-19T18:44:36.512Z,0.80
2018-04-19T18:47:04.105Z,0.93
2018-04-19T18:49:32.487Z,0.60
2018-04-19T18:52:00.129Z,0.87
2018-04-19T18:54:27.706Z,1.00
2018-04-19T18:56:56.064Z,1.00
2018-04-19T18:59:24.387Z,0.70
2018-04-19T19:01:51.998Z,0.90
2018-04-19T19:04:19.564Z,0.90
2018-04-19T19:06:47.981Z,0.97
2018-04-19T19:09:15.603Z,0.90
2018-04-19T19:11:46.069Z,0.87
2018-04-19T19:14:13.653Z,0.87
2018-04-19T19:16:41.253Z,0.80
2018-04-19T19:19:21.516Z,0.90
2018-04-19T19:21:49.902Z,0.70
2018-04-19T19:24:17.525Z,0.80
2018-04-19T19:26:45.171Z,0.90
2018-04-19T19:29:12.744Z,0.73
2018-04-19T19:31:40.345Z,0.93
2018-04-19T19:34:07.909Z,1.00
2018-04-19T19:36:35.477Z,0.97
2018-04-19T19:39:03.604Z,1.00
2018-04-19T19:41:31.181Z,0.90
2018-04-19T19:43:58.775Z,0.80
2018-04-19T19:46:26.401Z,1.17
2018-04-19T19:48:53.975Z,1.00
2018-04-19T19:51:21.568Z,0.77
2018-04-19T19:53:49.179Z,0.97
2018-04-19T19:56:16.757Z,0.90
2018-04-19T19:58:44.313Z,0.70
2018-04-19T20:01:11.888Z,1.00
2018-04-19T20:03:39.490Z,1.03
2018-04-19T20:06:07.844Z,1.00
2018-04-19T20:08:35.417Z,0.90
2018-04-19T20:11:04.505Z,0.87
2018-04-19T20:13:32.228Z,0.97
2018-04-19T20:15:59.817Z,0.93
2018-04-19T20:18:28.104Z,0.70
2018-04-19T20:20:56.437Z,1.00
2018-04-19T20:23:24.017Z,0.67
2018-04-19T20:25:51.572Z,0.93
2018-04-19T20:28:19.124Z,1.00
2018-04-19T20:30:46.689Z,0.97
2018-04-19T20:33:14.237Z,1.03
2018-04-19T20:35:41.802Z,0.93
2018-04-19T20:38:09.462Z,0.90
2018-04-19T20:40:37.053Z,0.83
2018-04-19T20:43:04.642Z,0.90
2018-04-19T20:45:33.093Z,0.90
2018-04-19T20:48:01.490Z,0.63
2018-04-19T20:50:29.052Z,1.00
2018-04-19T20:52:56.661Z,0.80
2018-04-19T20:55:24.233Z,1.10
2018-04-19T20:57:52.592Z,0.90
2018-04-19T21:00:20.148Z,1.00
2018-04-19T21:02:47.768Z,1.00
2018-04-19T21:05:15.328Z,0.97
2018-04-19T21:07:43.076Z,0.67
2018-04-19T21:10:11.365Z,1.00
2018-04-19T21:12:39.269Z,1.00
2018-04-19T21:15:07.805Z,1.10
2018-04-19T21:17:35.464Z,0.80
2018-04-19T21:20:03.100Z,0.90
2018-04-19T21:22:30.684Z,1.10
2018-04-19T21:24:58.371Z,0.80
2018-04-19T21:27:25.931Z,0.90
2018-04-19T21:29:53.498Z,1.00
2018-04-19T21:32:21.078Z,0.90
2018-04-19T21:34:49.448Z,0.80
2018-04-19T21:37:17.784Z,0.80
2018-04-19T21:39:45.387Z,0.90
2018-04-19T21:42:13.746Z,1.00
2018-04-19T21:44:41.333Z,0.70
2018-04-19T21:47:09.782Z,0.90
2018-04-19T21:49:38.549Z,0.80
2018-04-19T21:52:06.125Z,1.00
2018-04-19T21:54:33.730Z,0.77
2018-04-19T21:57:01.299Z,0.83
2018-04-19T21:59:28.886Z,0.83
2018-04-19T22:01:56.541Z,1.00
2018-04-19T22:04:24.109Z,0.80
2018-04-19T22:06:51.698Z,0.93
2018-04-19T22:09:20.751Z,1.10
2018-04-19T22:11:49.441Z,0.90
2018-04-19T22:14:17.041Z,0.90
2018-04-19T22:16:45.497Z,0.70
2018-04-19T22:19:13.122Z,0.60
2018-04-19T22:21:40.774Z,0.67
2018-04-19T22:24:08.422Z,1.10
2018-04-19T22:26:36.014Z,0.80
2018-04-19T22:29:03.632Z,0.80
2018-04-19T22:31:31.320Z,0.80
2018-04-19T22:33:58.898Z,0.80
2018-04-19T22:36:26.574Z,0.90
2018-04-19T22:38:54.182Z,0.90
2018-04-19T22:41:21.873Z,0.80
2018-04-19T22:43:49.550Z,0.80
2018-04-19T22:46:17.174Z,0.83
2018-04-19T22:48:45.116Z,0.60
2018-04-19T22:51:12.803Z,0.87
2018-04-19T22:53:41.480Z,0.90
2018-04-19T22:56:09.193Z,1.07
2018-04-19T22:58:36.840Z,0.80
2018-04-19T23:01:04.510Z,0.80
2018-04-19T23:03:32.361Z,0.83
2018-04-19T23:06:00.032Z,0.60
2018-04-19T23:08:27.766Z,0.80
2018-04-19T23:10:55.655Z,0.90
2018-04-19T23:13:23.224Z,0.87
2018-04-19T23:15:50.832Z,0.70
2018-04-19T23:18:18.542Z,1.00
2018-04-19T23:20:46.181Z,1.00
2018-04-19T23:23:13.931Z,0.53
2018-04-19T23:25:42.186Z,0.80
2018-04-19T23:28:09.736Z,0.73
2018-04-19T23:30:37.419Z,0.70
2018-04-19T23:33:04.979Z,1.03
2018-04-19T23:35:32.950Z,1.20
2018-04-19T23:38:02.041Z,0.70
2018-04-19T23:40:30.376Z,0.70
2018-04-19T23:42:58.274Z,0.80
2018-04-19T23:45:25.894Z,0.87
2018-04-19T23:47:54.619Z,0.80
2018-04-19T23:50:22.212Z,0.80
2018-04-19T23:52:49.767Z,0.70
2018-04-19T23:55:17.322Z,0.87
2018-04-19T23:57:44.886Z,0.73
